Time;durP1;ratioP1;P1;durP2;ratioP2;P2;SDS_P1;SDS_P2;PMS_P1;PMS_P2;Temp;Humidity;BMP_temperature;BMP_pressure;BME280_temperature;BME280_humidity;BME280_pressure;Samples;Min_cycle;Max_cycle;Signal;HPM_P1;HPM_P2
2022/07/24 00:00:26;;;;;;;;;;;15.10;99.90;;;;;;4949224;29;20395;-80
2022/07/24 00:02:51;;;;;;;;;;;15.10;99.90;;;;;;4932058;29;19911;-80
2022/07/24 00:05:17;;;;;;;;;;;15.20;99.90;;;;;;4948440;29;20610;-80
2022/07/24 00:07:44;;;;;;;;;;;15.20;99.90;;;;;;4933356;29;19977;-80
2022/07/24 00:10:10;;;;;;;;;;;15.10;99.90;;;;;;4949686;29;19919;-80
2022/07/24 00:12:36;;;;;;;;;;;15.20;99.90;;;;;;4946706;29;19911;-80
2022/07/24 00:15:01;;;;;;;;;;;15.20;99.90;;;;;;4937023;29;20429;-80
2022/07/24 00:17:27;;;;;;;;;;;15.40;99.90;;;;;;4947465;29;20426;-80
2022/07/24 00:19:52;;;;;;;;;;;15.40;99.90;;;;;;4941508;29;19918;-80
2022/07/24 00:22:18;;;;;;;;;;;15.30;99.90;;;;;;4929730;29;20482;-80
2022/07/24 00:24:43;;;;;;;;;;;15.30;99.90;;;;;;4950082;29;19913;-80
2022/07/24 00:27:09;;;;;;;;;;;15.40;99.90;;;;;;4949449;28;19906;-80
2022/07/24 00:29:34;;;;;;;;;;;15.40;99.90;;;;;;4949081;28;19911;-80
2022/07/24 00:32:00;;;;;;;;;;;15.40;99.90;;;;;;4950774;29;19911;-80
2022/07/24 00:34:25;;;;;;;;;;;15.30;99.90;;;;;;4950719;29;19906;-80
2022/07/24 00:36:51;;;;;;;;;;;15.40;99.90;;;;;;4933379;29;19910;-80
2022/07/24 00:39:16;;;;;;;;;;;15.40;99.90;;;;;;4951164;29;20351;-80
2022/07/24 00:41:42;;;;;;;;;;;15.50;99.90;;;;;;4948924;29;19911;-80
2022/07/24 00:44:09;;;;;;;;;;;15.60;99.90;;;;;;4931152;29;19906;-80
2022/07/24 00:46:36;;;;;;;;;;;15.60;99.90;;;;;;4935694;29;19910;-80
2022/07/24 00:49:03;;;;;;;;;;;15.80;99.90;;;;;;4949235;29;19911;-80
2022/07/24 00:51:29;;;;;;;;;;;15.80;99.90;;;;;;4952270;29;19914;-80
2022/07/24 00:53:54;;;;;;;;;;;15.90;99.90;;;;;;4954182;29;20001;-81
2022/07/24 00:56:20;;;;;;;;;;;15.90;99.90;;;;;;4947816;29;19946;-81
2022/07/24 00:58:46;;;;;;;;;;;15.80;99.90;;;;;;4931570;29;19910;-81
2022/07/24 01:01:12;;;;;;;;;;;15.90;99.90;;;;;;4950190;29;19907;-80
2022/07/24 01:03:38;;;;;;;;;;;15.80;99.90;;;;;;4944146;29;20402;-80
2022/07/24 01:06:05;;;;;;;;;;;15.90;99.90;;;;;;4946281;29;20426;-81
2022/07/24 01:08:31;;;;;;;;;;;16.10;99.90;;;;;;4932963;29;19997;-81
2022/07/24 01:10:57;;;;;;;;;;;16.10;99.90;;;;;;4948792;29;19942;-81
2022/07/24 01:13:22;;;;;;;;;;;16.00;99.90;;;;;;4935924;29;19941;-81
2022/07/24 01:15:48;;;;;;;;;;;15.80;99.90;;;;;;4948545;29;20001;-81
2022/07/24 01:18:13;;;;;;;;;;;15.60;99.90;;;;;;4948258;29;20358;-81
2022/07/24 01:20:39;;;;;;;;;;;15.40;99.90;;;;;;4939334;29;19910;-81
2022/07/24 01:23:06;;;;;;;;;;;15.40;99.90;;;;;;4939734;29;19945;-81
2022/07/24 01:25:32;;;;;;;;;;;15.60;99.90;;;;;;4950417;29;20355;-80
2022/07/24 01:27:57;;;;;;;;;;;15.90;99.90;;;;;;4937374;29;19925;-81
2022/07/24 01:30:23;;;;;;;;;;;16.00;99.90;;;;;;4957053;28;20374;-81
2022/07/24 01:32:49;;;;;;;;;;;16.00;99.90;;;;;;4937323;29;19919;-81
2022/07/24 01:35:15;;;;;;;;;;;15.80;99.90;;;;;;4932131;29;20031;-81
2022/07/24 01:37:40;;;;;;;;;;;15.90;99.90;;;;;;4940437;29;19913;-80
2022/07/24 01:40:06;;;;;;;;;;;16.00;99.90;;;;;;4941070;29;19914;-80
2022/07/24 01:42:31;;;;;;;;;;;16.20;99.90;;;;;;4949095;29;19917;-80
2022/07/24 01:44:57;;;;;;;;;;;16.30;99.90;;;;;;4944832;29;19922;-80
2022/07/24 01:47:23;;;;;;;;;;;16.20;99.90;;;;;;4951944;29;19910;-81
2022/07/24 01:49:48;;;;;;;;;;;16.20;99.90;;;;;;4950135;29;19910;-80
2022/07/24 01:52:14;;;;;;;;;;;16.30;99.90;;;;;;4936413;29;19906;-81
2022/07/24 01:54:39;;;;;;;;;;;16.30;99.90;;;;;;4947466;28;19913;-80
2022/07/24 01:57:05;;;;;;;;;;;16.40;99.90;;;;;;4928168;29;19921;-81
2022/07/24 01:59:30;;;;;;;;;;;16.40;99.90;;;;;;4953212;29;19914;-80
2022/07/24 02:01:56;;;;;;;;;;;16.40;99.90;;;;;;4947670;29;19914;-81
2022/07/24 02:04:21;;;;;;;;;;;16.40;99.90;;;;;;4941718;29;19911;-81
2022/07/24 02:06:47;;;;;;;;;;;16.40;99.90;;;;;;4938110;29;20314;-80
2022/07/24 02:09:12;;;;;;;;;;;16.50;99.90;;;;;;4936942;29;19938;-81
2022/07/24 02:11:38;;;;;;;;;;;16.50;99.90;;;;;;4929850;29;19918;-80
2022/07/24 02:14:04;;;;;;;;;;;16.60;99.90;;;;;;4956092;29;19913;-80
2022/07/24 02:16:29;;;;;;;;;;;16.70;99.90;;;;;;4943848;29;19926;-80
2022/07/24 02:18:55;;;;;;;;;;;16.80;99.90;;;;;;4937334;29;19913;-81
2022/07/24 02:21:21;;;;;;;;;;;16.80;99.90;;;;;;4949485;29;19910;-80
2022/07/24 02:23:46;;;;;;;;;;;16.90;99.90;;;;;;4948341;29;20360;-80
2022/07/24 02:26:12;;;;;;;;;;;17.00;99.90;;;;;;4935532;29;20487;-81
2022/07/24 02:28:37;;;;;;;;;;;16.90;99.90;;;;;;4933482;29;19918;-80
2022/07/24 02:31:03;;;;;;;;;;;16.90;99.90;;;;;;4934834;29;19921;-80
2022/07/24 02:33:28;;;;;;;;;;;16.90;99.90;;;;;;4947492;29;19961;-81
2022/07/24 02:35:54;;;;;;;;;;;16.80;99.90;;;;;;4935163;29;19973;-81
2022/07/24 02:38:20;;;;;;;;;;;16.80;99.90;;;;;;4930577;29;19910;-80
2022/07/24 02:40:45;;;;;;;;;;;16.80;99.90;;;;;;4936064;29;19907;-80
2022/07/24 02:43:11;;;;;;;;;;;16.90;99.90;;;;;;4932305;29;19918;-80
2022/07/24 02:45:36;;;;;;;;;;;16.80;99.90;;;;;;4952283;29;19920;-80
2022/07/24 02:48:02;;;;;;;;;;;16.90;99.90;;;;;;4935277;29;20025;-80
2022/07/24 02:50:32;;;;;;;;;;;16.90;99.90;;;;;;4949315;29;19910;-80
2022/07/24 02:52:57;;;;;;;;;;;16.90;99.90;;;;;;4937081;29;20323;-80
2022/07/24 02:55:23;;;;;;;;;;;16.90;99.90;;;;;;4953903;29;19950;-80
2022/07/24 02:57:49;;;;;;;;;;;16.90;99.90;;;;;;4954596;28;19907;-80
2022/07/24 03:00:15;;;;;;;;;;;17.00;99.90;;;;;;4938909;29;19910;-80
2022/07/24 03:02:41;;;;;;;;;;;17.00;99.90;;;;;;4937815;29;19946;-80
2022/07/24 03:05:07;;;;;;;;;;;16.90;99.90;;;;;;4956600;28;19918;-81
2022/07/24 03:07:33;;;;;;;;;;;16.90;99.90;;;;;;4954662;29;19929;-81
2022/07/24 03:09:58;;;;;;;;;;;16.90;99.90;;;;;;4937752;29;19970;-81
2022/07/24 03:12:24;;;;;;;;;;;16.90;99.90;;;;;;4934287;29;19906;-80
2022/07/24 03:14:49;;;;;;;;;;;16.80;99.90;;;;;;4947616;29;19961;-80
2022/07/24 03:17:15;;;;;;;;;;;16.80;99.90;;;;;;4935250;29;19915;-81
2022/07/24 03:19:40;;;;;;;;;;;16.80;99.90;;;;;;4936757;29;19909;-80
2022/07/24 03:22:06;;;;;;;;;;;16.80;99.90;;;;;;4935532;29;20013;-81
2022/07/24 03:24:31;;;;;;;;;;;16.80;99.90;;;;;;4936199;29;19907;-80
2022/07/24 03:26:57;;;;;;;;;;;16.80;99.90;;;;;;4931226;29;19943;-80
2022/07/24 03:29:22;;;;;;;;;;;16.80;99.90;;;;;;4908405;29;19962;-81
2022/07/24 03:31:48;;;;;;;;;;;16.80;99.90;;;;;;4906647;29;19911;-80
2022/07/24 03:34:13;;;;;;;;;;;16.80;99.90;;;;;;4906505;29;19911;-80
2022/07/24 03:36:39;;;;;;;;;;;16.80;99.90;;;;;;4913681;29;20375;-80
2022/07/24 03:39:05;;;;;;;;;;;16.80;99.90;;;;;;4905809;29;19913;-80
2022/07/24 03:41:30;;;;;;;;;;;16.80;99.90;;;;;;4907769;29;20377;-80
2022/07/24 03:43:56;;;;;;;;;;;16.80;99.90;;;;;;4901113;29;19907;-81
2022/07/24 03:46:22;;;;;;;;;;;16.80;99.90;;;;;;4912892;29;19966;-80
2022/07/24 03:48:48;;;;;;;;;;;16.80;99.90;;;;;;4907664;29;19907;-81
2022/07/24 03:51:13;;;;;;;;;;;16.80;99.90;;;;;;4916217;29;19914;-81
2022/07/24 03:53:39;;;;;;;;;;;16.80;99.90;;;;;;4915730;29;19907;-81
2022/07/24 03:56:08;;;;;;;;;;;16.80;99.90;;;;;;4908512;29;19915;-80
2022/07/24 03:58:33;;;;;;;;;;;16.80;99.90;;;;;;4915000;29;19918;-80
2022/07/24 04:00:59;;;;;;;;;;;16.90;99.90;;;;;;4906185;29;19915;-80
2022/07/24 04:03:24;;;;;;;;;;;16.90;99.90;;;;;;4915985;29;19915;-80
2022/07/24 04:05:50;;;;;;;;;;;17.00;99.90;;;;;;4915857;29;19907;-80
2022/07/24 04:08:15;;;;;;;;;;;17.00;99.90;;;;;;4915831;29;19959;-80
2022/07/24 04:10:41;;;;;;;;;;;17.10;99.90;;;;;;4901841;29;19908;-80
2022/07/24 04:13:06;;;;;;;;;;;17.20;99.90;;;;;;4916573;29;19907;-80
2022/07/24 04:15:32;;;;;;;;;;;17.20;99.90;;;;;;4904843;29;19959;-80
2022/07/24 04:17:57;;;;;;;;;;;17.20;99.90;;;;;;4907100;29;19911;-81
2022/07/24 04:20:23;;;;;;;;;;;17.20;99.90;;;;;;4907152;29;20326;-80
2022/07/24 04:22:48;;;;;;;;;;;17.30;99.90;;;;;;4909365;29;19911;-80
2022/07/24 04:25:14;;;;;;;;;;;17.50;99.90;;;;;;4904047;29;19914;-81
2022/07/24 04:27:40;;;;;;;;;;;17.50;99.90;;;;;;4924691;29;19925;-80
2022/07/24 04:30:06;;;;;;;;;;;17.60;99.90;;;;;;4936443;29;19910;-80
2022/07/24 04:32:31;;;;;;;;;;;17.70;99.90;;;;;;4948451;29;19914;-81
2022/07/24 04:34:57;;;;;;;;;;;17.70;99.90;;;;;;4937262;29;19906;-81
2022/07/24 04:37:22;;;;;;;;;;;17.80;99.90;;;;;;4952061;29;20088;-81
2022/07/24 04:39:48;;;;;;;;;;;17.90;99.90;;;;;;4941309;29;19906;-81
2022/07/24 04:42:14;;;;;;;;;;;17.90;99.90;;;;;;4939296;29;19950;-80
2022/07/24 04:44:40;;;;;;;;;;;18.00;99.90;;;;;;4934890;29;19942;-81
2022/07/24 04:47:05;;;;;;;;;;;18.00;99.90;;;;;;4947711;29;19907;-80
2022/07/24 04:49:31;;;;;;;;;;;18.00;99.90;;;;;;4938308;29;20425;-81
2022/07/24 04:51:56;;;;;;;;;;;18.00;99.90;;;;;;4946256;29;20050;-81
2022/07/24 04:54:22;;;;;;;;;;;18.10;99.90;;;;;;4937395;29;19907;-81
2022/07/24 04:56:48;;;;;;;;;;;18.00;99.90;;;;;;4945592;29;19911;-81
2022/07/24 04:59:13;;;;;;;;;;;18.00;99.90;;;;;;4941559;29;19910;-81
2022/07/24 05:01:39;;;;;;;;;;;18.00;99.90;;;;;;4950137;29;20279;-81
2022/07/24 05:04:04;;;;;;;;;;;18.00;99.90;;;;;;4940422;29;19915;-81
2022/07/24 05:06:30;;;;;;;;;;;18.10;99.90;;;;;;4944074;29;19906;-81
2022/07/24 05:08:55;;;;;;;;;;;18.10;99.90;;;;;;4932362;29;19934;-80
2022/07/24 05:11:21;;;;;;;;;;;18.20;99.90;;;;;;4932252;29;19906;-81
2022/07/24 05:13:46;;;;;;;;;;;18.30;99.90;;;;;;4948757;29;19914;-81
2022/07/24 05:16:12;;;;;;;;;;;18.40;99.90;;;;;;4949712;29;19910;-80
2022/07/24 05:18:37;;;;;;;;;;;18.50;99.90;;;;;;4936418;29;19907;-80
2022/07/24 05:21:03;;;;;;;;;;;18.60;99.90;;;;;;4952834;29;19910;-80
2022/07/24 05:23:29;;;;;;;;;;;18.80;99.90;;;;;;4929675;29;19907;-80
2022/07/24 05:25:54;;;;;;;;;;;18.90;99.90;;;;;;4946108;29;19914;-80
2022/07/24 05:28:20;;;;;;;;;;;19.00;99.90;;;;;;4941656;28;19924;-80
2022/07/24 05:30:45;;;;;;;;;;;19.10;99.90;;;;;;4941376;29;19942;-81
2022/07/24 05:33:11;;;;;;;;;;;19.20;99.90;;;;;;4947710;29;19910;-81
2022/07/24 05:35:36;;;;;;;;;;;19.30;99.90;;;;;;4945582;29;19915;-80
2022/07/24 05:38:02;;;;;;;;;;;19.30;99.90;;;;;;4949216;29;19915;-81
2022/07/24 05:40:27;;;;;;;;;;;19.40;99.90;;;;;;4938261;29;19907;-81
2022/07/24 05:42:53;;;;;;;;;;;19.40;99.90;;;;;;4938689;29;19910;-80
2022/07/24 05:45:18;;;;;;;;;;;19.40;99.90;;;;;;4950059;29;19907;-81
2022/07/24 05:47:44;;;;;;;;;;;19.50;99.90;;;;;;4937665;29;20460;-81
2022/07/24 05:50:10;;;;;;;;;;;19.60;99.90;;;;;;4948103;29;19906;-80
2022/07/24 05:52:36;;;;;;;;;;;19.70;99.90;;;;;;4928251;29;19910;-81
2022/07/24 05:55:02;;;;;;;;;;;19.80;99.90;;;;;;4942775;29;19934;-80
2022/07/24 05:57:27;;;;;;;;;;;19.80;99.90;;;;;;4929610;29;19910;-80
2022/07/24 05:59:53;;;;;;;;;;;19.80;99.90;;;;;;4928089;29;19917;-80
2022/07/24 06:02:18;;;;;;;;;;;19.90;99.90;;;;;;4930924;29;19933;-81
2022/07/24 06:04:44;;;;;;;;;;;20.00;99.90;;;;;;4947318;29;20378;-81
2022/07/24 06:07:10;;;;;;;;;;;20.00;99.90;;;;;;4930947;29;19917;-81
2022/07/24 06:09:36;;;;;;;;;;;20.10;99.90;;;;;;4938280;29;19914;-81
2022/07/24 06:12:02;;;;;;;;;;;20.20;99.90;;;;;;4944832;29;19974;-81
2022/07/24 06:14:27;;;;;;;;;;;20.30;99.90;;;;;;4943928;29;19907;-81
2022/07/24 06:16:53;;;;;;;;;;;20.30;99.90;;;;;;4935416;29;19919;-81
2022/07/24 06:19:18;;;;;;;;;;;20.30;99.90;;;;;;4947699;29;19913;-82
2022/07/24 06:21:44;;;;;;;;;;;20.40;99.90;;;;;;4935596;29;20009;-81
2022/07/24 06:24:09;;;;;;;;;;;20.50;99.90;;;;;;4946914;29;19973;-81
2022/07/24 06:26:35;;;;;;;;;;;20.50;99.90;;;;;;4949769;28;19985;-81
2022/07/24 06:29:01;;;;;;;;;;;20.60;99.90;;;;;;4953676;28;19933;-81
2022/07/24 06:31:26;;;;;;;;;;;20.70;99.90;;;;;;4928026;29;19938;-81
2022/07/24 06:33:52;;;;;;;;;;;20.80;99.90;;;;;;4936450;29;19956;-81
2022/07/24 06:36:17;;;;;;;;;;;20.80;99.90;;;;;;4944784;29;19910;-82
2022/07/24 06:38:43;;;;;;;;;;;20.90;99.90;;;;;;4936028;29;20386;-81
2022/07/24 06:41:08;;;;;;;;;;;21.00;99.90;;;;;;4945718;29;19907;-81
2022/07/24 06:43:34;;;;;;;;;;;21.10;99.90;;;;;;4936150;29;19913;-81
2022/07/24 06:45:59;;;;;;;;;;;21.20;99.90;;;;;;4936498;29;19911;-81
2022/07/24 06:48:25;;;;;;;;;;;21.30;99.90;;;;;;4936554;29;19914;-81
2022/07/24 06:50:50;;;;;;;;;;;21.50;99.90;;;;;;4926559;29;19917;-81
2022/07/24 06:53:16;;;;;;;;;;;21.50;99.90;;;;;;4937398;29;19907;-81
2022/07/24 06:55:41;;;;;;;;;;;21.50;99.90;;;;;;4943201;29;19982;-81
2022/07/24 06:58:10;;;;;;;;;;;21.60;99.90;;;;;;4933728;29;19911;-81
2022/07/24 07:00:36;;;;;;;;;;;21.60;99.90;;;;;;4926329;29;19918;-81
2022/07/24 07:03:01;;;;;;;;;;;21.70;99.90;;;;;;4943792;29;19911;-81
2022/07/24 07:05:29;;;;;;;;;;;21.70;99.90;;;;;;4943713;29;20027;-81
2022/07/24 07:07:54;;;;;;;;;;;21.80;99.90;;;;;;4946231;29;19910;-81
2022/07/24 07:10:20;;;;;;;;;;;21.90;99.90;;;;;;4948441;29;19906;-81
2022/07/24 07:12:45;;;;;;;;;;;22.10;99.90;;;;;;4936769;29;19918;-81
2022/07/24 07:15:11;;;;;;;;;;;22.10;99.90;;;;;;4942605;29;19907;-81
2022/07/24 07:17:38;;;;;;;;;;;22.20;99.90;;;;;;4943373;29;19907;-81
2022/07/24 07:20:04;;;;;;;;;;;22.20;99.90;;;;;;4946559;29;20346;-81
2022/07/24 07:22:30;;;;;;;;;;;22.30;99.90;;;;;;4945836;29;20362;-81
2022/07/24 07:24:55;;;;;;;;;;;22.40;99.90;;;;;;4935002;29;19945;-82
2022/07/24 07:27:21;;;;;;;;;;;22.50;99.90;;;;;;4949496;29;19914;-81
2022/07/24 07:29:46;;;;;;;;;;;22.50;99.90;;;;;;4954046;28;20397;-81
2022/07/24 07:32:12;;;;;;;;;;;22.70;99.90;;;;;;4934991;29;20346;-81
2022/07/24 07:34:37;;;;;;;;;;;22.70;99.90;;;;;;4944878;29;19928;-82
2022/07/24 07:37:03;;;;;;;;;;;22.90;99.90;;;;;;4938172;29;19936;-81
2022/07/24 07:39:28;;;;;;;;;;;23.10;99.90;;;;;;4930465;29;19918;-81
2022/07/24 07:41:54;;;;;;;;;;;23.30;99.90;;;;;;4946309;29;19914;-81
2022/07/24 07:44:19;;;;;;;;;;;23.50;99.90;;;;;;4951091;29;20325;-81
2022/07/24 07:46:45;;;;;;;;;;;23.60;99.90;;;;;;4947923;29;19907;-81
2022/07/24 07:49:10;;;;;;;;;;;23.60;99.90;;;;;;4943828;29;19938;-81
2022/07/24 07:51:36;;;;;;;;;;;23.40;99.90;;;;;;4948362;29;19945;-81
2022/07/24 07:54:01;;;;;;;;;;;23.50;99.90;;;;;;4952866;29;19907;-81
2022/07/24 07:56:30;;;;;;;;;;;23.60;99.90;;;;;;4939190;29;19918;-81
2022/07/24 07:58:56;;;;;;;;;;;23.90;99.90;;;;;;4946747;29;19907;-82
2022/07/24 08:01:21;;;;;;;;;;;23.90;99.90;;;;;;4947274;29;19918;-82
2022/07/24 08:03:47;;;;;;;;;;;24.00;99.90;;;;;;4957699;29;19963;-81
2022/07/24 08:06:12;;;;;;;;;;;24.10;99.90;;;;;;4956535;29;19914;-82
2022/07/24 08:08:38;;;;;;;;;;;23.90;99.90;;;;;;4958724;29;19907;-81
2022/07/24 08:11:03;;;;;;;;;;;24.10;99.90;;;;;;4936857;29;19925;-81
2022/07/24 08:13:29;;;;;;;;;;;24.30;99.90;;;;;;4957361;28;20404;-81
2022/07/24 08:15:55;;;;;;;;;;;24.40;99.90;;;;;;4939626;29;19910;-81
2022/07/24 08:18:20;;;;;;;;;;;24.50;99.90;;;;;;4936638;29;19911;-81
2022/07/24 08:20:49;;;;;;;;;;;24.70;99.90;;;;;;4937496;29;19910;-82
2022/07/24 08:23:14;;;;;;;;;;;25.10;99.90;;;;;;4953075;29;19911;-81
2022/07/24 08:25:40;;;;;;;;;;;25.60;99.50;;;;;;4954515;28;20329;-81
2022/07/24 08:28:05;;;;;;;;;;;25.90;98.60;;;;;;4954575;29;19953;-82
2022/07/24 08:30:31;;;;;;;;;;;26.10;98.20;;;;;;4936035;29;19932;-81
2022/07/24 08:32:56;;;;;;;;;;;26.10;96.90;;;;;;4943251;29;19917;-81
2022/07/24 08:35:23;;;;;;;;;;;26.50;96.70;;;;;;4940632;29;19978;-81
2022/07/24 08:37:48;;;;;;;;;;;26.70;96.20;;;;;;4959951;29;19919;-81
2022/07/24 08:40:14;;;;;;;;;;;27.20;96.10;;;;;;4940256;29;19931;-81
2022/07/24 08:42:40;;;;;;;;;;;27.30;94.90;;;;;;4934894;29;19911;-81
2022/07/24 08:45:06;;;;;;;;;;;27.60;93.90;;;;;;4936299;29;19911;-81
2022/07/24 08:47:47;;;;;;;;;;;27.80;93.70;;;;;;4938428;29;19910;-82
2022/07/24 08:50:12;;;;;;;;;;;27.50;94.30;;;;;;4943473;29;19989;-81
2022/07/24 08:52:38;;;;;;;;;;;27.30;93.60;;;;;;4929441;29;20485;-80
2022/07/24 08:55:04;;;;;;;;;;;27.20;94.00;;;;;;4933687;29;19910;-81
2022/07/24 08:57:30;;;;;;;;;;;27.60;93.10;;;;;;4943905;29;19921;-80
2022/07/24 08:59:56;;;;;;;;;;;28.00;93.30;;;;;;4955029;29;20379;-81
2022/07/24 09:02:21;;;;;;;;;;;28.40;92.50;;;;;;4952724;28;19914;-81
2022/07/24 09:04:48;;;;;;;;;;;28.70;92.80;;;;;;4956783;29;19910;-81
2022/07/24 09:07:14;;;;;;;;;;;29.10;92.30;;;;;;4951931;28;19966;-81
2022/07/24 09:09:41;;;;;;;;;;;29.60;91.20;;;;;;4949413;29;19911;-81
2022/07/24 09:12:06;;;;;;;;;;;29.20;90.40;;;;;;4949014;29;19907;-81
2022/07/24 09:14:33;;;;;;;;;;;29.00;90.30;;;;;;4933838;29;19915;-81
2022/07/24 09:17:06;;;;;;;;;;;28.90;90.50;;;;;;4955025;29;19911;-81
2022/07/24 09:19:44;;;;;;;;;;;28.40;90.60;;;;;;4929295;29;19974;-81
2022/07/24 09:22:15;;;;;;;;;;;28.70;90.50;;;;;;4949526;29;19913;-81
2022/07/24 09:24:41;;;;;;;;;;;28.90;90.10;;;;;;4937459;29;19906;-80
2022/07/24 09:27:13;;;;;;;;;;;28.70;90.00;;;;;;4931942;29;19922;-81
2022/07/24 09:29:38;;;;;;;;;;;28.20;90.30;;;;;;4916169;29;19970;-81
2022/07/24 09:32:04;;;;;;;;;;;28.50;90.30;;;;;;4917847;29;19911;-80
2022/07/24 09:34:36;;;;;;;;;;;28.00;90.20;;;;;;4912171;29;19930;-81
2022/07/24 09:37:03;;;;;;;;;;;28.30;90.30;;;;;;4921808;29;19923;-81
2022/07/24 09:39:38;;;;;;;;;;;27.90;91.00;;;;;;4920899;29;20285;-84
2022/07/24 09:42:05;;;;;;;;;;;28.30;91.30;;;;;;4918451;29;19966;-82
2022/07/24 09:44:31;;;;;;;;;;;29.20;89.10;;;;;;4936085;29;19943;-81
2022/07/24 09:46:58;;;;;;;;;;;29.70;87.60;;;;;;4917110;29;19911;-81
2022/07/24 09:49:24;;;;;;;;;;;29.90;87.90;;;;;;4916382;29;19922;-82
2022/07/24 09:52:06;;;;;;;;;;;30.30;87.00;;;;;;4916614;29;19918;-82
2022/07/24 09:54:36;;;;;;;;;;;30.20;86.90;;;;;;4922628;29;19907;-81
2022/07/24 09:57:15;;;;;;;;;;;29.80;85.30;;;;;;4922783;29;19911;-84
2022/07/24 09:59:42;;;;;;;;;;;30.20;85.20;;;;;;4910095;29;19908;-85
2022/07/24 10:02:10;;;;;;;;;;;30.00;84.80;;;;;;4920448;29;19914;-84
2022/07/24 10:04:37;;;;;;;;;;;29.90;84.50;;;;;;4929997;29;19947;-85
2022/07/24 10:07:04;;;;;;;;;;;30.20;84.80;;;;;;4918140;29;19914;-84
2022/07/24 10:09:31;;;;;;;;;;;30.50;84.30;;;;;;4917606;29;20298;-85
2022/07/24 10:11:57;;;;;;;;;;;31.30;82.00;;;;;;4915632;29;19951;-85
2022/07/24 10:14:24;;;;;;;;;;;31.20;80.50;;;;;;4914820;29;19918;-85
2022/07/24 10:16:53;;;;;;;;;;;31.50;81.70;;;;;;4915768;29;19917;-84
2022/07/24 10:19:20;;;;;;;;;;;31.50;78.80;;;;;;4915606;29;20336;-84
2022/07/24 10:21:52;;;;;;;;;;;31.40;78.80;;;;;;4918682;29;19919;-83
2022/07/24 10:24:45;;;;;;;;;;;31.00;79.10;;;;;;4913804;29;19945;-83
2022/07/24 10:27:21;;;;;;;;;;;31.20;78.70;;;;;;4914164;29;19953;-84
2022/07/24 10:29:48;;;;;;;;;;;30.70;79.00;;;;;;4935882;29;19919;-83
2022/07/24 10:32:13;;;;;;;;;;;30.40;79.50;;;;;;4937228;29;19981;-84
2022/07/24 10:34:46;;;;;;;;;;;30.60;78.80;;;;;;4935799;29;19994;-84
2022/07/24 10:37:30;;;;;;;;;;;30.70;77.30;;;;;;4931046;29;19918;-84
2022/07/24 10:40:02;;;;;;;;;;;30.90;78.10;;;;;;4927813;29;19911;-83
2022/07/24 10:42:27;;;;;;;;;;;31.50;77.50;;;;;;4931260;29;19907;-84
2022/07/24 10:45:11;;;;;;;;;;;31.80;76.60;;;;;;4928026;29;20635;-84
2022/07/24 10:47:37;;;;;;;;;;;31.90;76.00;;;;;;4945664;29;19914;-83
2022/07/24 10:50:04;;;;;;;;;;;31.90;76.30;;;;;;4926591;29;19911;-84
2022/07/24 10:52:32;;;;;;;;;;;32.10;74.30;;;;;;4936073;29;20319;-83
2022/07/24 10:55:17;;;;;;;;;;;32.40;75.30;;;;;;4936178;29;20000;-84
2022/07/24 10:58:01;;;;;;;;;;;32.50;73.30;;;;;;4953688;29;19918;-83
2022/07/24 11:00:35;;;;;;;;;;;31.50;73.70;;;;;;4934756;29;20005;-84
2022/07/24 11:03:06;;;;;;;;;;;30.80;75.00;;;;;;4937761;29;20009;-83
2022/07/24 11:05:38;;;;;;;;;;;30.50;75.70;;;;;;4929959;29;19907;-83
2022/07/24 11:08:29;;;;;;;;;;;30.90;75.40;;;;;;4936015;29;19917;-84
2022/07/24 11:10:57;;;;;;;;;;;32.20;73.30;;;;;;4941967;29;19911;-83
2022/07/24 11:13:31;;;;;;;;;;;32.40;73.00;;;;;;4936295;29;19929;-83
2022/07/24 11:16:17;;;;;;;;;;;32.30;73.10;;;;;;4926433;29;19914;-83
2022/07/24 11:19:02;;;;;;;;;;;31.50;72.30;;;;;;4920917;29;19907;-83
2022/07/24 11:21:28;;;;;;;;;;;31.30;73.40;;;;;;4929664;29;20371;-83
2022/07/24 11:24:12;;;;;;;;;;;31.90;73.00;;;;;;4925337;29;19915;-83
2022/07/24 11:26:40;;;;;;;;;;;31.80;72.40;;;;;;4948253;28;20347;-84
2022/07/24 11:29:09;;;;;;;;;;;32.70;71.40;;;;;;4921623;29;19919;-84
2022/07/24 11:31:36;;;;;;;;;;;33.40;71.20;;;;;;4917141;29;19967;-84
2022/07/24 11:34:03;;;;;;;;;;;33.40;69.80;;;;;;4920188;29;20394;-84
2022/07/24 11:36:29;;;;;;;;;;;33.40;71.00;;;;;;4919014;29;19978;-84
2022/07/24 11:38:54;;;;;;;;;;;33.80;69.60;;;;;;4917027;29;20360;-83
2022/07/24 11:41:20;;;;;;;;;;;34.30;69.00;;;;;;4907046;29;19908;-83
2022/07/24 11:43:52;;;;;;;;;;;33.40;69.60;;;;;;4915635;29;19942;-83
2022/07/24 11:46:33;;;;;;;;;;;33.60;70.00;;;;;;4919242;29;20002;-83
2022/07/24 11:49:06;;;;;;;;;;;34.50;67.90;;;;;;4909199;29;20343;-83
2022/07/24 11:51:32;;;;;;;;;;;33.90;67.50;;;;;;4913345;29;20389;-84
2022/07/24 11:53:58;;;;;;;;;;;34.20;69.10;;;;;;4920325;29;19907;-84
2022/07/24 11:56:23;;;;;;;;;;;34.80;67.90;;;;;;4919244;29;20064;-84
2022/07/24 11:58:49;;;;;;;;;;;34.90;66.10;;;;;;4919664;29;19914;-84
2022/07/24 12:01:18;;;;;;;;;;;34.20;65.70;;;;;;4912783;29;19915;-83
2022/07/24 12:03:51;;;;;;;;;;;34.60;65.20;;;;;;4913125;29;19923;-83
2022/07/24 12:06:18;;;;;;;;;;;34.90;66.10;;;;;;4911231;29;19918;-84
2022/07/24 12:08:43;;;;;;;;;;;35.10;64.90;;;;;;4919014;29;19949;-84
2022/07/24 12:11:10;;;;;;;;;;;35.10;64.30;;;;;;4914314;29;20271;-84
2022/07/24 12:13:40;;;;;;;;;;;34.10;64.90;;;;;;4919904;29;19907;-83
2022/07/24 12:16:06;;;;;;;;;;;32.80;65.60;;;;;;4909368;29;19912;-83
2022/07/24 12:18:32;;;;;;;;;;;33.80;65.80;;;;;;4909256;29;20047;-83
2022/07/24 12:20:59;;;;;;;;;;;35.20;64.60;;;;;;4918089;29;19936;-84
2022/07/24 12:23:24;;;;;;;;;;;35.80;63.40;;;;;;4918632;29;19911;-83
2022/07/24 12:25:50;;;;;;;;;;;35.60;63.10;;;;;;4912694;29;19914;-84
2022/07/24 12:28:18;;;;;;;;;;;35.80;62.60;;;;;;4914791;29;19923;-84
2022/07/24 12:30:43;;;;;;;;;;;35.40;63.80;;;;;;4916514;29;19916;-83
2022/07/24 12:33:19;;;;;;;;;;;35.40;64.10;;;;;;4915895;29;19911;-84
2022/07/24 12:35:55;;;;;;;;;;;35.40;63.00;;;;;;4916127;29;19915;-84
2022/07/24 12:38:26;;;;;;;;;;;35.90;62.00;;;;;;4919509;29;19907;-84
2022/07/24 12:41:00;;;;;;;;;;;36.50;61.80;;;;;;4909597;29;20324;-84
2022/07/24 12:43:28;;;;;;;;;;;36.50;60.60;;;;;;4925894;29;19947;-83
2022/07/24 12:46:14;;;;;;;;;;;35.90;60.90;;;;;;4912806;29;19915;-83
2022/07/24 12:48:39;;;;;;;;;;;35.40;62.10;;;;;;4914573;29;19945;-84
2022/07/24 12:51:08;;;;;;;;;;;35.90;61.40;;;;;;4920825;29;19907;-84
2022/07/24 12:53:34;;;;;;;;;;;36.90;61.10;;;;;;4905224;29;19908;-84
2022/07/24 12:56:04;;;;;;;;;;;35.40;60.80;;;;;;4915272;29;19978;-84
2022/07/24 12:58:46;;;;;;;;;;;35.90;60.80;;;;;;4908047;29;19917;-84
2022/07/24 13:01:12;;;;;;;;;;;35.50;61.20;;;;;;4912984;29;19918;-84
2022/07/24 13:03:37;;;;;;;;;;;36.30;61.60;;;;;;4910095;29;19915;-84
2022/07/24 13:06:03;;;;;;;;;;;37.10;59.80;;;;;;4919385;29;19950;-84
2022/07/24 13:08:28;;;;;;;;;;;37.20;59.60;;;;;;4915204;29;19951;-84
2022/07/24 13:10:55;;;;;;;;;;;36.30;59.00;;;;;;4918896;29;20398;-84
2022/07/24 13:13:21;;;;;;;;;;;37.10;60.00;;;;;;4913816;29;19907;-84
2022/07/24 13:15:46;;;;;;;;;;;37.20;59.40;;;;;;4912592;29;19911;-84
2022/07/24 13:18:12;;;;;;;;;;;36.50;57.80;;;;;;4919584;29;20283;-84
2022/07/24 13:20:37;;;;;;;;;;;36.70;59.90;;;;;;4914870;29;19911;-84
2022/07/24 13:23:03;;;;;;;;;;;37.20;58.60;;;;;;4909366;29;20402;-84
2022/07/24 13:25:29;;;;;;;;;;;38.40;57.90;;;;;;4906099;29;19947;-84
2022/07/24 13:27:54;;;;;;;;;;;37.30;58.00;;;;;;4914501;29;19915;-84
2022/07/24 13:30:20;;;;;;;;;;;36.80;57.80;;;;;;4915429;29;19966;-84
2022/07/24 13:32:45;;;;;;;;;;;37.00;57.40;;;;;;4918257;29;19926;-84
2022/07/24 13:35:11;;;;;;;;;;;37.60;57.10;;;;;;4919751;29;19911;-84
2022/07/24 13:37:37;;;;;;;;;;;38.00;57.00;;;;;;4921557;29;20304;-84
2022/07/24 13:40:04;;;;;;;;;;;38.10;56.20;;;;;;4910333;29;19956;-84
2022/07/24 13:42:31;;;;;;;;;;;38.20;56.90;;;;;;4911182;29;19918;-84
2022/07/24 13:44:56;;;;;;;;;;;38.80;56.10;;;;;;4915856;29;19939;-84
2022/07/24 13:47:22;;;;;;;;;;;38.30;56.30;;;;;;4909062;29;19959;-84
2022/07/24 13:49:47;;;;;;;;;;;38.80;56.90;;;;;;4904743;29;19959;-84
2022/07/24 13:52:15;;;;;;;;;;;38.70;56.40;;;;;;4909341;29;19907;-84
2022/07/24 13:54:41;;;;;;;;;;;38.80;56.40;;;;;;4922529;29;19912;-84
2022/07/24 13:57:07;;;;;;;;;;;38.80;55.90;;;;;;4916953;29;19915;-83
2022/07/24 13:59:33;;;;;;;;;;;38.40;56.50;;;;;;4922279;29;20323;-83
2022/07/24 14:01:58;;;;;;;;;;;38.30;56.10;;;;;;4920276;29;20009;-83
2022/07/24 14:04:24;;;;;;;;;;;38.90;56.50;;;;;;4912860;29;19915;-84
2022/07/24 14:06:50;;;;;;;;;;;38.60;55.90;;;;;;4915055;29;19998;-84
2022/07/24 14:09:15;;;;;;;;;;;38.10;55.80;;;;;;4915764;29;20014;-83
2022/07/24 14:11:41;;;;;;;;;;;38.90;55.60;;;;;;4918383;29;19914;-83
2022/07/24 14:14:07;;;;;;;;;;;38.70;56.10;;;;;;4925589;29;19914;-83